Terminal Aerodrome Forecast
Issued by NWS

Home | Current Version | Previous Version | Text Only | Print | Product List | Glossary On
Versions: 1 2 3 4 5 6 7 8 9 10 11 12 13 14 15 16 17 18 19
000
FTUS46 KSTO 280500 RRA
TAFSMF
TAF
KSMF 280543Z 2806/2906 VRB04KT 6SM BR SKC
     FM280900 VRB04KT 4SM BR BCFG SKC
     FM281100 VRB03KT 2SM BR SKC
      TEMPO 2813/2817 1/4SM FG BKN002
     FM281800 VRB03KT 4SM BR BKN250
     FM282000 19006KT 6SM HZ SCT150 BKN200
     FM290200 VRB04KT 3SM -RA OVC050=

USA.gov is the U.S. government's official web portal to all federal, state and local government web resources and services.